Time;durP1;ratioP1;P1;durP2;ratioP2;P2;SDS_P1;SDS_P2;PMS_P1;PMS_P2;Temp;Humidity;BMP_temperature;BMP_pressure;BME280_temperature;BME280_humidity;BME280_pressure;Samples;Min_cycle;Max_cycle;Signal;HPM_P1;HPM_P2
2021/03/28 00:01:45;;;;;;;9.23;4.43;;;;;;;;;;6103138;23;20173;-78
2021/03/28 00:04:14;;;;;;;8.77;4.30;;;;;;;;;;6127959;23;20571;-78
2021/03/28 00:06:52;;;;;;;8.93;4.13;;;;;;;;;;6129126;23;20197;-78
2021/03/28 00:09:22;;;;;;;7.00;4.00;;;;;;;;;;6128724;23;20200;-78
2021/03/28 00:12:00;;;;;;;7.80;3.53;;;;;;;;;;6128703;23;20548;-78
2021/03/28 00:14:39;;;;;;;9.43;3.63;;;;;;;;;;6128391;23;20147;-78
2021/03/28 00:17:07;;;;;;;8.97;3.40;;;;;;;;;;6128680;23;20206;-78
2021/03/28 00:19:36;;;;;;;10.20;4.17;;;;;;;;;;6128342;23;20568;-78
2021/03/28 00:22:04;;;;;;;8.23;3.53;;;;;;;;;;6128637;23;20174;-78
2021/03/28 00:24:31;;;;;;;6.53;3.10;;;;;;;;;;6128446;23;20598;-78
2021/03/28 00:27:07;;;;;;;5.57;3.10;;;;;;;;;;6129642;23;20174;-78
2021/03/28 00:29:44;;;;;;;8.97;3.07;;;;;;;;;;6104101;23;20178;-78
2021/03/28 00:32:15;;;;;;;6.67;2.73;;;;;;;;;;6105082;23;20228;-78
2021/03/28 00:34:42;;;;;;;9.50;2.53;;;;;;;;;;6129777;23;20178;-78
2021/03/28 00:37:16;;;;;;;8.73;3.03;;;;;;;;;;6130322;23;20433;-78
2021/03/28 00:39:44;;;;;;;6.23;2.70;;;;;;;;;;6129605;23;20183;-78
2021/03/28 00:42:19;;;;;;;6.20;2.80;;;;;;;;;;6130379;23;20185;-78
2021/03/28 00:44:48;;;;;;;6.53;2.77;;;;;;;;;;6129911;23;20169;-78
2021/03/28 00:47:18;;;;;;;5.10;2.50;;;;;;;;;;6130319;23;20182;-78
2021/03/28 00:49:45;;;;;;;9.57;2.80;;;;;;;;;;6129502;23;20258;-78
2021/03/28 00:52:22;;;;;;;6.93;2.80;;;;;;;;;;6130264;23;20185;-78
2021/03/28 00:54:50;;;;;;;8.23;2.93;;;;;;;;;;6129668;23;20436;-78
2021/03/28 00:57:20;;;;;;;9.93;2.73;;;;;;;;;;6130038;23;20185;-78
2021/03/28 00:59:51;;;;;;;6.70;2.80;;;;;;;;;;6130426;23;20174;-78
2021/03/28 01:02:20;;;;;;;5.80;3.00;;;;;;;;;;6130340;23;20184;-78
2021/03/28 01:05:19;;;;;;;8.63;2.87;;;;;;;;;;6129392;23;20436;-78
2021/03/28 01:07:54;;;;;;;5.53;2.73;;;;;;;;;;6130284;23;20242;-78
2021/03/28 01:10:28;;;;;;;6.00;3.10;;;;;;;;;;6129730;23;20173;-78
2021/03/28 01:13:13;;;;;;;7.57;2.83;;;;;;;;;;6129826;23;20249;-78
2021/03/28 01:15:54;;;;;;;8.20;3.43;;;;;;;;;;6129706;23;20174;-78
2021/03/28 01:18:25;;;;;;;9.13;3.37;;;;;;;;;;6053089;23;20253;-78
2021/03/28 01:20:56;;;;;;;8.40;2.77;;;;;;;;;;6099474;23;20627;-78
2021/03/28 01:23:30;;;;;;;9.50;3.10;;;;;;;;;;6100431;23;20198;-78
2021/03/28 01:26:05;;;;;;;8.20;2.80;;;;;;;;;;6100542;23;20182;-78
2021/03/28 01:28:34;;;;;;;4.87;2.70;;;;;;;;;;6098870;23;20178;-78
2021/03/28 01:31:02;;;;;;;7.60;2.87;;;;;;;;;;6100632;23;20175;-78
2021/03/28 01:33:31;;;;;;;9.57;2.70;;;;;;;;;;6100574;23;20175;-78
2021/03/28 01:36:01;;;;;;;6.07;2.40;;;;;;;;;;6099752;23;20179;-78
2021/03/28 01:38:32;;;;;;;5.10;2.23;;;;;;;;;;6100253;23;20182;-77
2021/03/28 01:41:00;;;;;;;7.77;2.27;;;;;;;;;;6100415;23;20175;-78
2021/03/28 01:43:30;;;;;;;5.60;3.00;;;;;;;;;;6100297;23;20194;-78
2021/03/28 01:46:01;;;;;;;8.03;3.10;;;;;;;;;;6100080;23;20183;-77
2021/03/28 01:48:33;;;;;;;10.37;3.50;;;;;;;;;;6100292;23;20184;-78
2021/03/28 01:51:11;;;;;;;7.50;3.30;;;;;;;;;;6100383;23;20575;-78
2021/03/28 01:53:43;;;;;;;8.27;3.23;;;;;;;;;;6099849;23;20178;-76
2021/03/28 01:56:12;;;;;;;5.83;3.00;;;;;;;;;;6100491;23;20449;-78
2021/03/28 01:58:42;;;;;;;10.23;3.27;;;;;;;;;;6100083;23;20186;-78
2021/03/28 02:01:18;;;;;;;8.63;3.07;;;;;;;;;;6100662;23;20175;-78
2021/03/28 02:03:49;;;;;;;6.23;3.20;;;;;;;;;;6100344;23;20575;-78
2021/03/28 02:06:29;;;;;;;9.47;3.73;;;;;;;;;;6099995;23;20576;-78
2021/03/28 02:08:56;;;;;;;9.77;4.10;;;;;;;;;;6099932;23;20179;-78
2021/03/28 02:11:35;;;;;;;9.60;4.23;;;;;;;;;;6100016;23;20190;-78
2021/03/28 02:14:07;;;;;;;6.60;3.17;;;;;;;;;;6099303;23;20595;-78
2021/03/28 02:16:44;;;;;;;5.97;3.10;;;;;;;;;;6100402;23;20174;-78
2021/03/28 02:19:13;;;;;;;5.73;2.67;;;;;;;;;;6128155;23;20626;-78
2021/03/28 02:21:46;;;;;;;5.83;2.63;;;;;;;;;;6129293;23;20177;-78
2021/03/28 02:24:15;;;;;;;6.93;3.40;;;;;;;;;;6128975;23;20190;-78
2021/03/28 02:26:43;;;;;;;7.03;2.50;;;;;;;;;;6129264;23;20188;-78
2021/03/28 02:29:14;;;;;;;7.37;3.37;;;;;;;;;;6128618;23;20413;-78
2021/03/28 02:32:01;;;;;;;10.70;3.33;;;;;;;;;;6128677;23;20186;-78
2021/03/28 02:34:30;;;;;;;8.70;3.13;;;;;;;;;;6119542;23;20170;-77
2021/03/28 02:37:01;;;;;;;8.93;2.50;;;;;;;;;;6129278;23;20174;-78
2021/03/28 02:39:35;;;;;;;6.10;2.30;;;;;;;;;;6129075;23;20574;-78
2021/03/28 02:42:10;;;;;;;7.37;2.57;;;;;;;;;;6128985;23;20181;-78
2021/03/28 02:44:54;;;;;;;6.67;2.50;;;;;;;;;;6128834;23;20185;-78
2021/03/28 02:47:27;;;;;;;6.20;2.70;;;;;;;;;;6128711;23;20174;-78
2021/03/28 02:50:00;;;;;;;8.27;2.50;;;;;;;;;;6128748;23;20184;-78
2021/03/28 02:52:44;;;;;;;6.13;2.30;;;;;;;;;;6128335;23;20174;-78
2021/03/28 02:55:27;;;;;;;6.57;2.60;;;;;;;;;;6128596;23;20174;-78
2021/03/28 02:57:56;;;;;;;8.97;2.77;;;;;;;;;;6129318;23;20181;-78
2021/03/28 03:00:31;;;;;;;8.00;2.70;;;;;;;;;;6129409;23;20205;-78
2021/03/28 03:03:16;;;;;;;6.60;2.53;;;;;;;;;;6128696;23;20256;-78
2021/03/28 03:06:01;;;;;;;6.93;2.50;;;;;;;;;;6128927;23;20680;-78
2021/03/28 03:08:30;;;;;;;5.13;2.67;;;;;;;;;;6129263;23;20225;-78
2021/03/28 03:11:08;;;;;;;6.03;2.50;;;;;;;;;;6128802;23;20174;-77
2021/03/28 03:13:58;;;;;;;5.27;2.43;;;;;;;;;;6128385;23;20237;-78
2021/03/28 03:16:28;;;;;;;7.27;2.03;;;;;;;;;;6021223;23;20181;-78
2021/03/28 03:19:03;;;;;;;6.00;2.50;;;;;;;;;;6128288;23;20202;-78
2021/03/28 03:21:44;;;;;;;5.27;2.47;;;;;;;;;;6103407;23;20436;-78
2021/03/28 03:24:28;;;;;;;7.93;2.40;;;;;;;;;;6129089;23;20241;-78
2021/03/28 03:27:13;;;;;;;6.67;2.30;;;;;;;;;;6128456;23;20174;-78
2021/03/28 03:29:46;;;;;;;9.40;2.90;;;;;;;;;;6128513;23;20173;-78
2021/03/28 03:32:26;;;;;;;6.17;2.37;;;;;;;;;;6128723;23;20551;-78
2021/03/28 03:34:56;;;;;;;6.97;2.43;;;;;;;;;;6128830;23;20624;-77
2021/03/28 03:37:38;;;;;;;8.33;2.33;;;;;;;;;;6128024;23;20487;-78
2021/03/28 03:40:13;;;;;;;6.20;2.27;;;;;;;;;;6128916;23;20181;-78
2021/03/28 03:43:06;;;;;;;6.30;2.33;;;;;;;;;;6128375;23;20197;-78
2021/03/28 03:45:38;;;;;;;8.93;2.67;;;;;;;;;;6060973;23;20174;-78
2021/03/28 03:48:10;;;;;;;5.07;2.70;;;;;;;;;;6128094;23;20198;-78
2021/03/28 03:50:48;;;;;;;4.97;2.50;;;;;;;;;;6128648;23;20476;-78
2021/03/28 03:53:20;;;;;;;5.50;2.50;;;;;;;;;;6127309;23;20198;-78
2021/03/28 03:55:53;;;;;;;6.37;2.20;;;;;;;;;;6128879;23;20479;-78
2021/03/28 03:58:24;;;;;;;10.33;2.80;;;;;;;;;;6128288;23;20174;-78
2021/03/28 04:00:55;;;;;;;4.17;2.23;;;;;;;;;;6130449;23;20289;-78
2021/03/28 04:03:25;;;;;;;8.50;2.60;;;;;;;;;;6130512;23;20550;-78
2021/03/28 04:05:59;;;;;;;4.97;2.47;;;;;;;;;;6130686;23;20182;-78
2021/03/28 04:08:40;;;;;;;6.53;2.80;;;;;;;;;;6130439;23;20177;-77
2021/03/28 04:11:11;;;;;;;9.40;2.43;;;;;;;;;;6126199;23;20425;-78
2021/03/28 04:13:47;;;;;;;4.17;2.20;;;;;;;;;;6129976;23;20174;-78
2021/03/28 04:16:22;;;;;;;7.20;3.53;;;;;;;;;;6130683;23;20185;-79
2021/03/28 04:19:06;;;;;;;6.33;2.53;;;;;;;;;;6129684;23;20208;-77
2021/03/28 04:21:39;;;;;;;7.13;2.40;;;;;;;;;;6130247;23;20178;-78
2021/03/28 04:24:19;;;;;;;5.07;2.60;;;;;;;;;;6129596;23;20197;-78
2021/03/28 04:26:54;;;;;;;8.07;2.60;;;;;;;;;;6130216;23;20174;-78
2021/03/28 04:29:22;;;;;;;6.83;2.70;;;;;;;;;;6129869;23;20173;-77
2021/03/28 04:32:11;;;;;;;6.93;2.50;;;;;;;;;;6130404;23;20182;-78
2021/03/28 04:34:49;;;;;;;6.00;2.50;;;;;;;;;;6130266;23;20170;-77
2021/03/28 04:37:26;;;;;;;6.60;2.40;;;;;;;;;;6130068;23;20181;-77
2021/03/28 04:40:08;;;;;;;7.63;2.47;;;;;;;;;;6129958;23;20178;-78
2021/03/28 04:42:49;;;;;;;7.67;3.00;;;;;;;;;;6130126;23;20181;-78
2021/03/28 04:45:25;;;;;;;5.30;2.50;;;;;;;;;;6130248;23;20190;-78
2021/03/28 04:47:58;;;;;;;6.23;2.40;;;;;;;;;;6130132;23;20178;-78
2021/03/28 04:50:39;;;;;;;8.07;2.40;;;;;;;;;;6130332;23;20480;-78
2021/03/28 04:53:21;;;;;;;5.40;2.30;;;;;;;;;;6066597;23;20174;-79
2021/03/28 04:56:03;;;;;;;7.80;2.60;;;;;;;;;;6129792;23;20174;-78
2021/03/28 04:58:40;;;;;;;6.37;2.50;;;;;;;;;;6129768;23;20220;-79
2021/03/28 05:01:31;;;;;;;5.93;2.63;;;;;;;;;;6130477;23;20174;-78
2021/03/28 05:04:08;;;;;;;6.80;2.53;;;;;;;;;;6129567;23;20568;-78
2021/03/28 05:06:38;;;;;;;8.43;2.47;;;;;;;;;;6130159;23;20178;-79
2021/03/28 05:09:22;;;;;;;4.60;2.60;;;;;;;;;;6129872;23;20536;-78
2021/03/28 05:12:06;;;;;;;7.70;2.87;;;;;;;;;;6128236;23;20484;-78
2021/03/28 05:14:47;;;;;;;7.77;3.00;;;;;;;;;;6129011;23;20170;-78
2021/03/28 05:17:28;;;;;;;6.20;2.43;;;;;;;;;;6103648;23;20202;-77
2021/03/28 05:20:01;;;;;;;6.87;2.63;;;;;;;;;;6105516;23;20178;-78
2021/03/28 05:22:46;;;;;;;5.40;2.70;;;;;;;;;;6130001;23;20229;-78
2021/03/28 05:25:32;;;;;;;4.53;2.50;;;;;;;;;;6130069;23;20559;-77
2021/03/28 05:28:14;;;;;;;7.33;2.63;;;;;;;;;;6129570;23;20178;-78
2021/03/28 05:31:01;;;;;;;7.13;2.60;;;;;;;;;;6129943;23;20599;-78
2021/03/28 05:33:43;;;;;;;4.73;2.20;;;;;;;;;;6120186;23;20181;-78
2021/03/28 05:36:23;;;;;;;8.87;2.70;;;;;;;;;;6129508;23;20174;-77
2021/03/28 05:39:10;;;;;;;8.13;3.17;;;;;;;;;;6129536;23;20206;-79
2021/03/28 05:41:51;;;;;;;8.10;2.93;;;;;;;;;;6129907;23;20484;-77
2021/03/28 05:44:34;;;;;;;6.37;2.53;;;;;;;;;;6065713;23;20237;-77
2021/03/28 05:47:07;;;;;;;7.47;2.57;;;;;;;;;;6129561;23;20178;-78
2021/03/28 05:49:41;;;;;;;4.80;2.33;;;;;;;;;;6128287;23;20181;-77
2021/03/28 05:52:29;;;;;;;8.27;2.60;;;;;;;;;;6128483;23;20192;-78
2021/03/28 05:55:01;;;;;;;8.03;2.50;;;;;;;;;;6129403;23;20555;-78
2021/03/28 05:57:41;;;;;;;7.20;2.47;;;;;;;;;;6129334;23;20221;-78
2021/03/28 06:00:27;;;;;;;8.10;3.37;;;;;;;;;;6129694;23;20178;-77
2021/03/28 06:03:01;;;;;;;4.07;2.50;;;;;;;;;;6119223;23;20178;-77
2021/03/28 06:05:59;;;;;;;6.13;2.33;;;;;;;;;;6128930;23;20194;-78
2021/03/28 06:08:39;;;;;;;6.80;2.43;;;;;;;;;;6128854;23;20453;-78
2021/03/28 06:11:22;;;;;;;6.33;2.53;;;;;;;;;;6129749;23;20479;-78
2021/03/28 06:14:03;;;;;;;8.10;2.40;;;;;;;;;;6128460;23;20170;-77
2021/03/28 06:16:38;;;;;;;6.43;2.53;;;;;;;;;;6125069;23;20174;-77
2021/03/28 06:19:15;;;;;;;8.33;2.40;;;;;;;;;;6128411;23;20202;-78
2021/03/28 06:21:59;;;;;;;6.53;2.50;;;;;;;;;;6129315;23;20255;-77
2021/03/28 06:24:44;;;;;;;4.00;2.43;;;;;;;;;;6129065;23;20476;-77
2021/03/28 06:27:23;;;;;;;6.13;2.43;;;;;;;;;;6129640;23;20524;-77
2021/03/28 06:30:07;;;;;;;9.33;2.60;;;;;;;;;;6129433;23;20173;-77
2021/03/28 06:32:53;;;;;;;7.03;2.27;;;;;;;;;;6103602;23;20202;-77
2021/03/28 06:35:49;;;;;;;6.83;2.33;;;;;;;;;;6128999;23;20198;-77
2021/03/28 06:38:25;;;;;;;4.00;2.23;;;;;;;;;;6011644;23;20233;-76
2021/03/28 06:41:10;;;;;;;8.87;2.43;;;;;;;;;;6109287;23;20177;-77
2021/03/28 06:43:53;;;;;;;6.97;2.50;;;;;;;;;;6128354;23;20181;-76
2021/03/28 06:46:27;;;;;;;8.63;2.37;;;;;;;;;;6128928;23;20178;-78
2021/03/28 06:49:14;;;;;;;7.03;2.40;;;;;;;;;;6128263;23;20202;-77
2021/03/28 06:51:47;;;;;;;4.83;2.43;;;;;;;;;;6080375;23;20174;-77
2021/03/28 06:54:26;;;;;;;8.53;2.80;;;;;;;;;;6128893;23;20437;-77
2021/03/28 06:57:18;;;;;;;4.77;2.17;;;;;;;;;;6128717;23;20229;-77
2021/03/28 07:00:01;;;;;;;9.70;3.03;;;;;;;;;;6129112;23;20174;-78
2021/03/28 07:02:48;;;;;;;9.13;2.53;;;;;;;;;;6128799;23;20173;-78
2021/03/28 07:05:21;;;;;;;7.60;2.97;;;;;;;;;;6080072;23;20202;-78
2021/03/28 07:08:17;;;;;;;7.03;2.70;;;;;;;;;;6128441;23;20185;-77
2021/03/28 07:10:51;;;;;;;9.47;3.20;;;;;;;;;;6129247;23;20480;-78
2021/03/28 07:13:37;;;;;;;6.87;2.90;;;;;;;;;;6128080;23;20174;-79
2021/03/28 07:16:22;;;;;;;5.17;2.43;;;;;;;;;;6128813;23;20225;-78
2021/03/28 07:19:12;;;;;;;6.47;2.67;;;;;;;;;;6127755;23;20209;-78
2021/03/28 07:21:53;;;;;;;5.57;2.73;;;;;;;;;;6021483;23;20232;-77
2021/03/28 07:24:35;;;;;;;8.77;2.57;;;;;;;;;;6128027;23;20186;-79
2021/03/28 07:27:20;;;;;;;6.57;2.37;;;;;;;;;;6127843;23;20248;-78
2021/03/28 07:30:15;;;;;;;8.70;2.50;;;;;;;;;;6128168;23;20459;-78
2021/03/28 07:33:05;;;;;;;5.67;2.23;;;;;;;;;;6128452;23;20540;-77
2021/03/28 07:35:43;;;;;;;6.33;2.63;;;;;;;;;;6022946;23;20231;-77
2021/03/28 07:38:21;;;;;;;5.37;2.23;;;;;;;;;;6129803;23;20451;-77
2021/03/28 07:41:05;;;;;;;6.50;2.30;;;;;;;;;;6130696;23;20184;-77
2021/03/28 07:44:03;;;;;;;5.83;2.13;;;;;;;;;;6129344;23;20178;-77
2021/03/28 07:46:45;;;;;;;4.53;1.80;;;;;;;;;;6130771;23;20582;-77
2021/03/28 07:49:25;;;;;;;5.43;2.10;;;;;;;;;;6130156;23;20178;-77
2021/03/28 07:52:02;;;;;;;6.73;2.57;;;;;;;;;;6131006;23;20174;-77
2021/03/28 07:54:48;;;;;;;3.97;2.17;;;;;;;;;;6130244;23;20173;-77
2021/03/28 07:57:29;;;;;;;8.63;2.43;;;;;;;;;;6104988;23;20173;-78
2021/03/28 08:00:00;;;;;;;9.43;2.53;;;;;;;;;;6130257;23;20178;-77
2021/03/28 08:02:51;;;;;;;5.93;2.13;;;;;;;;;;6129886;23;20205;-77
2021/03/28 08:05:34;;;;;;;6.50;2.13;;;;;;;;;;6130831;23;20198;-77
2021/03/28 08:08:07;;;;;;;5.50;2.00;;;;;;;;;;6129257;23;20178;-78
2021/03/28 08:10:41;;;;;;;4.00;2.23;;;;;;;;;;6130874;23;20420;-78
2021/03/28 08:13:18;;;;;;;7.00;2.83;;;;;;;;;;6129965;23;20547;-78
2021/03/28 08:15:50;;;;;;;15.47;4.80;;;;;;;;;;6130263;23;20174;-77
2021/03/28 08:18:27;;;;;;;8.93;2.80;;;;;;;;;;6128624;23;20252;-77
2021/03/28 08:21:16;;;;;;;5.50;2.50;;;;;;;;;;6104192;23;20635;-78
2021/03/28 08:23:57;;;;;;;2.63;1.80;;;;;;;;;;6130176;23;20568;-77
2021/03/28 08:26:45;;;;;;;9.30;2.47;;;;;;;;;;6129500;23;20200;-76
2021/03/28 08:29:18;;;;;;;7.23;2.10;;;;;;;;;;6129327;23;20229;-77
2021/03/28 08:31:51;;;;;;;7.53;2.13;;;;;;;;;;6129684;23;20477;-77
2021/03/28 08:34:35;;;;;;;7.57;2.30;;;;;;;;;;6129958;23;20174;-78
2021/03/28 08:37:13;;;;;;;6.80;2.43;;;;;;;;;;6129870;23;20447;-78
2021/03/28 08:39:48;;;;;;;7.50;2.47;;;;;;;;;;6129770;23;20988;-77
2021/03/28 08:42:23;;;;;;;9.37;2.70;;;;;;;;;;6129680;23;20212;-77
2021/03/28 08:45:03;;;;;;;2.93;1.53;;;;;;;;;;6129016;23;20234;-77
2021/03/28 08:47:50;;;;;;;6.50;2.20;;;;;;;;;;6130356;23;20189;-79
2021/03/28 08:50:20;;;;;;;6.07;2.23;;;;;;;;;;6130241;23;20561;-79
2021/03/28 08:52:56;;;;;;;7.73;2.47;;;;;;;;;;6129720;23;20552;-81
2021/03/28 08:55:50;;;;;;;5.97;2.00;;;;;;;;;;6104459;23;20178;-77
2021/03/28 08:58:20;;;;;;;6.53;2.10;;;;;;;;;;6129932;23;20173;-79
2021/03/28 09:00:54;;;;;;;7.97;2.73;;;;;;;;;;6130232;23;20480;-76
2021/03/28 09:03:38;;;;;;;5.60;2.20;;;;;;;;;;6129607;23;20500;-77
2021/03/28 09:06:07;;;;;;;4.47;1.93;;;;;;;;;;6127680;23;20500;-80
2021/03/28 09:08:35;;;;;;;6.17;2.20;;;;;;;;;;6129329;23;20178;-79
2021/03/28 09:11:22;;;;;;;4.93;2.10;;;;;;;;;;6130526;23;20178;-80
2021/03/28 09:13:50;;;;;;;5.60;2.20;;;;;;;;;;6129670;23;20241;-78
2021/03/28 09:16:21;;;;;;;8.10;2.03;;;;;;;;;;6129675;23;20182;-78
2021/03/28 09:18:49;;;;;;;2.80;1.67;;;;;;;;;;6129257;23;20209;-80
2021/03/28 09:21:25;;;;;;;3.80;1.83;;;;;;;;;;6130004;23;20205;-80
2021/03/28 09:24:01;;;;;;;4.40;1.93;;;;;;;;;;6130535;23;20213;-80
2021/03/28 09:26:33;;;;;;;3.60;1.70;;;;;;;;;;6129933;23;20185;-78
2021/03/28 09:29:04;;;;;;;3.90;1.70;;;;;;;;;;6129435;23;20181;-77
2021/03/28 09:31:34;;;;;;;6.83;1.83;;;;;;;;;;6129503;23;20174;-80
2021/03/28 09:34:09;;;;;;;3.53;2.10;;;;;;;;;;6103942;23;20197;-82
2021/03/28 09:36:37;;;;;;;4.80;1.90;;;;;;;;;;6129515;23;20181;-77
2021/03/28 09:39:12;;;;;;;3.77;1.90;;;;;;;;;;6129509;23;20189;-82
2021/03/28 09:41:47;;;;;;;7.07;2.00;;;;;;;;;;6129071;23;20181;-79
2021/03/28 09:44:19;;;;;;;5.23;1.90;;;;;;;;;;6102263;23;20177;-76
2021/03/28 09:46:48;;;;;;;3.17;1.90;;;;;;;;;;6128699;23;20637;-78
2021/03/28 09:49:33;;;;;;;5.83;1.80;;;;;;;;;;6128578;23;20174;-79
2021/03/28 09:52:17;;;;;;;5.97;2.23;;;;;;;;;;6128463;23;20177;-80
2021/03/28 09:54:55;;;;;;;4.60;1.90;;;;;;;;;;6128944;23;20171;-78
2021/03/28 09:57:27;;;;;;;4.53;1.83;;;;;;;;;;6128547;23;20173;-75
2021/03/28 10:00:17;;;;;;;4.80;1.53;;;;;;;;;;6128320;23;20299;-77
2021/03/28 10:02:48;;;;;;;2.83;1.80;;;;;;;;;;6128175;23;20181;-77
2021/03/28 10:05:22;;;;;;;5.73;2.40;;;;;;;;;;6129619;23;20186;-79
2021/03/28 10:07:51;;;;;;;3.90;2.00;;;;;;;;;;6129153;23;20181;-79
2021/03/28 10:10:25;;;;;;;5.57;2.73;;;;;;;;;;6129123;23;20570;-80
2021/03/28 10:12:55;;;;;;;4.40;1.80;;;;;;;;;;6128514;23;20544;-81
2021/03/28 10:15:22;;;;;;;4.43;1.50;;;;;;;;;;6128972;23;20178;-79
2021/03/28 10:17:51;;;;;;;5.97;1.90;;;;;;;;;;6128762;23;20201;-79
2021/03/28 10:20:26;;;;;;;4.70;1.93;;;;;;;;;;6129280;23;20181;-79
2021/03/28 10:23:02;;;;;;;5.37;2.33;;;;;;;;;;6128357;23;20552;-77
2021/03/28 10:25:33;;;;;;;5.87;1.73;;;;;;;;;;6129132;23;20614;-80
2021/03/28 10:28:10;;;;;;;4.53;1.70;;;;;;;;;;6128975;23;20498;-77
2021/03/28 10:30:44;;;;;;;5.07;1.90;;;;;;;;;;6129106;23;20181;-75
2021/03/28 10:33:18;;;;;;;3.93;1.67;;;;;;;;;;6128642;23;20174;-82
2021/03/28 10:36:05;;;;;;;5.17;1.77;;;;;;;;;;6129101;23;20170;-76
2021/03/28 10:38:39;;;;;;;4.00;1.87;;;;;;;;;;6119747;23;20552;-77
2021/03/28 10:41:13;;;;;;;2.73;1.60;;;;;;;;;;6129029;23;20224;-76
2021/03/28 10:43:47;;;;;;;6.00;2.33;;;;;;;;;;6129084;23;20180;-81
2021/03/28 10:46:36;;;;;;;7.23;2.10;;;;;;;;;;6128548;23;20185;-81
2021/03/28 10:49:31;;;;;;;4.30;2.07;;;;;;;;;;6128307;23;20181;-77
2021/03/28 10:52:24;;;;;;;3.73;1.60;;;;;;;;;;6128846;23;20437;-77
2021/03/28 10:55:07;;;;;;;4.80;1.90;;;;;;;;;;6129035;23;20236;-79
2021/03/28 10:57:52;;;;;;;4.27;2.07;;;;;;;;;;6127687;23;20623;-77
2021/03/28 11:00:49;;;;;;;3.07;1.57;;;;;;;;;;6128838;23;20173;-77
2021/03/28 11:03:29;;;;;;;2.77;1.27;;;;;;;;;;6128676;23;20181;-77
2021/03/28 11:06:07;;;;;;;8.30;1.70;;;;;;;;;;6128871;23;20233;-78
2021/03/28 11:08:48;;;;;;;4.57;2.00;;;;;;;;;;6128768;23;20248;-78
2021/03/28 11:11:37;;;;;;;4.63;1.60;;;;;;;;;;6104735;23;20178;-78
2021/03/28 11:14:17;;;;;;;3.73;1.53;;;;;;;;;;6128886;23;20418;-75
2021/03/28 11:16:55;;;;;;;2.70;1.37;;;;;;;;;;6128616;23;20722;-79
2021/03/28 11:19:36;;;;;;;3.47;1.67;;;;;;;;;;6070713;23;20179;-75
2021/03/28 11:22:11;;;;;;;7.47;1.87;;;;;;;;;;6070737;23;20175;-80
2021/03/28 11:24:52;;;;;;;4.17;1.83;;;;;;;;;;6070629;23;20183;-76
2021/03/28 11:27:27;;;;;;;3.37;1.97;;;;;;;;;;6070766;23;20581;-78
2021/03/28 11:30:02;;;;;;;2.40;1.60;;;;;;;;;;6071149;23;20190;-77
2021/03/28 11:32:43;;;;;;;3.03;1.30;;;;;;;;;;6070729;23;20179;-77
2021/03/28 11:35:16;;;;;;;3.47;1.60;;;;;;;;;;6070752;23;20171;-77
2021/03/28 11:37:45;;;;;;;3.57;1.70;;;;;;;;;;6070238;23;20180;-77
2021/03/28 11:40:26;;;;;;;5.50;1.70;;;;;;;;;;6071379;23;20176;-78
2021/03/28 11:43:13;;;;;;;4.63;1.70;;;;;;;;;;6067784;23;20448;-78
2021/03/28 11:45:40;;;;;;;4.83;2.00;;;;;;;;;;6070688;23;20187;-79
2021/03/28 11:48:21;;;;;;;4.53;1.30;;;;;;;;;;6070530;23;20223;-80
2021/03/28 11:50:48;;;;;;;4.82;1.73;;;;;;;;;;6069721;23;20730;-79
2021/03/28 11:53:20;;;;;;;4.40;1.97;;;;;;;;;;6069157;23;20184;-79
2021/03/28 11:55:48;;;;;;;4.10;1.73;;;;;;;;;;6070612;23;20175;-80
2021/03/28 11:58:30;;;;;;;5.00;1.47;;;;;;;;;;6070163;23;20470;-79
2021/03/28 12:00:57;;;;;;;4.03;1.67;;;;;;;;;;6069692;23;20175;-80
2021/03/28 12:03:29;;;;;;;5.53;2.00;;;;;;;;;;6069386;23;20179;-79
2021/03/28 12:05:57;;;;;;;3.23;1.80;;;;;;;;;;6069606;23;20187;-80
2021/03/28 12:08:26;;;;;;;3.07;1.50;;;;;;;;;;6069636;23;20179;-81
2021/03/28 12:10:52;;;;;;;4.97;1.73;;;;;;;;;;6068328;23;20448;-81
2021/03/28 12:13:29;;;;;;;4.57;1.77;;;;;;;;;;6069089;23;20179;-81
2021/03/28 12:15:58;;;;;;;5.20;1.50;;;;;;;;;;6069864;23;20178;-80
2021/03/28 12:18:34;;;;;;;5.40;1.80;;;;;;;;;;6104628;23;20723;-80
2021/03/28 12:21:23;;;;;;;3.07;1.40;;;;;;;;;;6128731;23;20174;-80
2021/03/28 12:23:57;;;;;;;3.70;1.50;;;;;;;;;;6129589;23;20178;-80
2021/03/28 12:26:25;;;;;;;3.93;1.30;;;;;;;;;;6129119;23;20189;-81
2021/03/28 12:28:54;;;;;;;2.13;1.37;;;;;;;;;;6103311;23;20174;-80
2021/03/28 12:31:31;;;;;;;2.27;1.23;;;;;;;;;;6128738;23;20182;-80
2021/03/28 12:34:06;;;;;;;2.30;1.57;;;;;;;;;;6128948;23;20174;-80
2021/03/28 12:36:49;;;;;;;3.93;1.97;;;;;;;;;;6103405;23;20216;-80
2021/03/28 12:39:18;;;;;;;2.37;1.47;;;;;;;;;;6129212;23;20272;-80
2021/03/28 12:41:59;;;;;;;5.57;1.50;;;;;;;;;;6128939;23;20178;-80
2021/03/28 12:44:30;;;;;;;2.70;1.53;;;;;;;;;;6127682;23;20205;-80
2021/03/28 12:46:57;;;;;;;3.20;1.63;;;;;;;;;;6128957;23;20597;-80
2021/03/28 12:49:28;;;;;;;2.83;1.67;;;;;;;;;;6103594;23;20436;-80
2021/03/28 12:52:02;;;;;;;3.80;1.60;;;;;;;;;;6129048;23;20174;-80
2021/03/28 12:54:30;;;;;;;2.13;1.63;;;;;;;;;;6129273;23;20440;-80
2021/03/28 12:57:01;;;;;;;4.13;1.80;;;;;;;;;;6129204;23;20727;-85
2021/03/28 12:59:32;;;;;;;3.20;1.97;;;;;;;;;;6128432;23;20805;-78
2021/03/28 13:02:10;;;;;;;3.63;1.70;;;;;;;;;;6129883;23;20174;-79
2021/03/28 13:04:37;;;;;;;3.27;1.70;;;;;;;;;;6129857;23;20174;-78
2021/03/28 13:07:04;;;;;;;2.73;1.60;;;;;;;;;;6129923;23;20198;-78
2021/03/28 13:09:33;;;;;;;3.33;1.70;;;;;;;;;;6130359;23;20178;-78
2021/03/28 13:12:20;;;;;;;3.03;1.70;;;;;;;;;;6129940;23;20178;-78
2021/03/28 13:14:46;;;;;;;6.68;2.00;;;;;;;;;;6129490;23;20726;-78
2021/03/28 13:17:33;;;;;;;3.42;1.50;;;;;;;;;;6103020;23;20221;-77
2021/03/28 13:20:12;;;;;;;4.10;1.77;;;;;;;;;;6129771;23;20480;-78
2021/03/28 13:22:40;;;;;;;3.83;1.42;;;;;;;;;;6128519;23;20726;-78
2021/03/28 13:25:08;;;;;;;4.63;2.00;;;;;;;;;;6130086;23;20178;-78
2021/03/28 13:27:34;;;;;;;3.08;1.77;;;;;;;;;;6129166;23;20647;-79
2021/03/28 13:30:04;;;;;;;6.25;1.80;;;;;;;;;;6128774;23;20174;-79
2021/03/28 13:32:32;;;;;;;5.05;2.00;;;;;;;;;;6127326;23;20178;-78
2021/03/28 13:34:59;;;;;;;4.80;1.90;;;;;;;;;;6128253;23;20178;-81
2021/03/28 13:37:39;;;;;;;3.55;1.70;;;;;;;;;;6128217;23;20578;-81
2021/03/28 13:40:07;;;;;;;4.32;2.00;;;;;;;;;;6128687;23;20181;-80
2021/03/28 13:42:36;;;;;;;3.42;1.60;;;;;;;;;;6128282;23;20189;-77
2021/03/28 13:45:05;;;;;;;4.57;1.70;;;;;;;;;;6128778;23;20181;-77
2021/03/28 13:47:48;;;;;;;3.25;1.75;;;;;;;;;;6102019;23;20209;-77
2021/03/28 13:50:33;;;;;;;1.90;1.70;;;;;;;;;;6103035;23;20228;-77
2021/03/28 13:53:01;;;;;;;2.63;1.80;;;;;;;;;;6128146;23;20173;-77
2021/03/28 13:55:32;;;;;;;2.92;1.85;;;;;;;;;;6129105;23;20177;-77
2021/03/28 13:58:07;;;;;;;4.55;1.55;;;;;;;;;;6128264;23;20181;-77
2021/03/28 14:00:34;;;;;;;4.57;1.67;;;;;;;;;;6128227;23;20184;-78
2021/03/28 14:03:13;;;;;;;5.30;1.77;;;;;;;;;;6127838;23;20174;-79
2021/03/28 14:05:40;;;;;;;2.92;1.70;;;;;;;;;;6128363;23;20190;-78
2021/03/28 14:08:12;;;;;;;4.65;1.65;;;;;;;;;;6128093;23;20555;-78
2021/03/28 14:10:46;;;;;;;3.72;2.05;;;;;;;;;;6129384;23;20185;-83
2021/03/28 14:13:15;;;;;;;3.05;1.70;;;;;;;;;;6127939;23;20212;-77
2021/03/28 14:15:43;;;;;;;2.92;1.65;;;;;;;;;;6128783;23;20177;-78
2021/03/28 14:18:21;;;;;;;2.53;1.67;;;;;;;;;;6127270;23;20209;-78
2021/03/28 14:20:48;;;;;;;2.85;1.55;;;;;;;;;;6128812;23;20173;-79
2021/03/28 14:23:21;;;;;;;3.50;1.48;;;;;;;;;;6127618;23;20180;-78
2021/03/28 14:25:49;;;;;;;3.15;1.77;;;;;;;;;;6128333;23;20186;-78
2021/03/28 14:28:49;;;;;;;2.47;1.52;;;;;;;;;;6101999;23;20178;-77
2021/03/28 14:31:21;;;;;;;2.95;1.58;;;;;;;;;;6010985;23;20233;-78
2021/03/28 14:33:59;;;;;;;4.47;1.80;;;;;;;;;;6009970;23;20199;-77
2021/03/28 14:36:32;;;;;;;3.90;1.67;;;;;;;;;;6010646;23;20174;-78
2021/03/28 14:39:11;;;;;;;3.88;1.98;;;;;;;;;;6010119;23;20225;-78
2021/03/28 14:41:41;;;;;;;4.25;1.90;;;;;;;;;;6010356;23;20188;-78
2021/03/28 14:44:34;;;;;;;4.20;1.88;;;;;;;;;;6009170;23;20409;-78
2021/03/28 14:47:03;;;;;;;4.78;1.85;;;;;;;;;;6010051;23;20190;-78
2021/03/28 14:49:34;;;;;;;3.92;1.40;;;;;;;;;;6010372;23;20187;-84
2021/03/28 14:52:19;;;;;;;3.33;2.00;;;;;;;;;;6008664;23;21024;-79
2021/03/28 14:54:49;;;;;;;3.17;1.52;;;;;;;;;;6010255;23;20176;-80
2021/03/28 14:57:18;;;;;;;3.60;1.67;;;;;;;;;;6011094;23;20180;-82
2021/03/28 14:59:50;;;;;;;3.42;1.90;;;;;;;;;;6010973;23;21219;-81
2021/03/28 15:02:38;;;;;;;2.95;1.60;;;;;;;;;;6076861;23;20174;-82
2021/03/28 15:05:14;;;;;;;2.80;1.67;;;;;;;;;;6129658;23;20181;-87
2021/03/28 15:07:45;;;;;;;2.25;1.20;;;;;;;;;;6128462;23;20249;-81
2021/03/28 15:10:18;;;;;;;4.75;1.50;;;;;;;;;;6129138;23;20174;-82
2021/03/28 15:12:48;;;;;;;6.28;1.60;;;;;;;;;;6129022;23;20181;-82
2021/03/28 15:15:18;;;;;;;2.47;1.58;;;;;;;;;;6129167;23;20185;-82
2021/03/28 15:17:48;;;;;;;2.45;1.40;;;;;;;;;;6127056;23;20205;-82
2021/03/28 15:20:22;;;;;;;3.17;1.45;;;;;;;;;;6128238;23;20335;-83
2021/03/28 15:22:51;;;;;;;4.13;1.58;;;;;;;;;;6128370;23;20220;-82
2021/03/28 15:25:19;;;;;;;2.50;1.70;;;;;;;;;;6102066;23;20222;-79
2021/03/28 15:27:46;;;;;;;1.77;1.40;;;;;;;;;;6128519;23;20583;-81
2021/03/28 15:30:19;;;;;;;2.58;1.80;;;;;;;;;;6128874;23;20197;-83
2021/03/28 15:32:57;;;;;;;3.28;2.20;;;;;;;;;;6128292;23;20204;-77
2021/03/28 15:35:26;;;;;;;3.95;1.70;;;;;;;;;;6128858;23;20566;-79
2021/03/28 15:38:15;;;;;;;3.85;1.60;;;;;;;;;;6127692;23;20441;-86